Latest Weather Observations for Broken Hill Airport

IDN60801

Issued at 7:32 pm EST Friday 22 May 2015 (issued every 30 minutes, with the page automatically refreshed every 10 minutes)

About weather observations | Map of weather stations | Latest weather observations for NSW | Other Formats
Station Details ID: 047048 Name: BROKEN HILL AIRPORT AWS Lat: -32.00 Lon: 141.47 Height: 281.3 m
Data from the previous 72 hours. | See also: Recent months for locations in New South Wales
Date/Time
EST
Temp
°C
App
Temp
°C
Dew
Point
Rel
Hum
%
Delta-T
°C
Wind Press
QNH
hPa
Press
MSL
hPa
Rain
since 9 am
mm
Dir
 
Spd
km/h
Gust
km/h
Spd
kts
Gust
kts
22/07:30pm 9.8 8.2 6.5 80 1.6 SSW 4 7 2 4 1029.5 1029.4 0.0
22/07:00pm 10.1 7.9 6.4 78 1.7 S 7 9 4 5 1029.3 1029.2 0.0
22/06:30pm 10.7 8.2 6.6 76 1.9 SSE 9 13 5 7 1029.0 1028.9 0.0
22/06:00pm 12.0 8.5 7.1 72 2.4 S 15 17 8 9 1028.6 1028.5 0.0
22/05:30pm 13.1 8.6 7.1 67 3.0 S 20 26 11 14 1028.4 1028.3 0.0
22/05:00pm 13.9 9.1 7.4 65 3.2 S 22 28 12 15 1028.0 1027.9 0.0
22/04:30pm 13.9 8.4 7.4 65 3.2 S 26 33 14 18 1027.9 1027.8 0.0
22/04:00pm 14.2 9.1 7.7 65 3.2 S 24 32 13 17 1027.8 1027.7 0.0
22/03:30pm 14.1 8.7 8.1 67 3.0 S 26 32 14 17 1027.6 1027.5 0.0
22/03:00pm 13.5 8.8 7.7 68 2.9 SSW 22 28 12 15 1027.7 1027.6 0.0
22/02:30pm 12.2 7.3 7.1 71 2.5 S 22 32 12 17 1027.8 1027.7 0.0
22/02:00pm 11.9 7.1 7.2 73 2.3 SSW 22 33 12 18 1028.0 1027.9 0.0
22/01:30pm 11.7 6.2 7.4 75 2.1 SSW 26 35 14 19 1028.2 1028.1 0.0
22/01:00pm 11.6 6.8 7.5 76 2.0 SSW 22 28 12 15 1028.6 1028.5 0.0
22/12:30pm 11.3 5.6 6.8 74 2.2 S 26 32 14 17 1028.8 1028.7 0.0
22/12:00pm 11.1 6.1 6.6 74 2.1 S 22 30 12 16 1029.2 1029.1 0.0
22/11:36am 11.0 6.5 6.9 76 2.0 SSW 20 28 11 15 1029.4 1029.3 0.0
22/11:30am 10.6 5.7 6.7 77 1.9 SSW 22 28 12 15 1029.5 1029.4 0.0
22/11:04am 10.2 5.7 6.9 80 1.6 SSW 20 30 11 16 1029.6 1029.5 0.0
22/11:00am 10.3 5.5 7.4 82 1.4 SSW 22 30 12 16 1029.5 1029.4 0.0
22/10:30am 9.7 3.7 7.0 83 1.3 SSW 28 33 15 18 1029.3 1029.2 0.0
22/10:00am 9.8 3.0 7.1 83 1.3 S 32 39 17 21 1029.3 1029.2 0.0
22/09:30am 9.0 1.9 6.6 85 1.1 SSW 33 43 18 23 1028.9 1028.8 0.0
22/09:00am 8.8 2.4 6.8 87 0.9 SSW 30 37 16 20 1028.5 1028.4 0.0
22/08:30am 8.5 2.4 6.6 88 0.9 SSW 28 33 15 18 1028.2 1028.1 0.0
22/08:00am 8.7 3.0 6.8 88 0.9 SSW 26 39 14 21 1027.9 1027.8 0.0
22/07:42am 8.6 3.6 6.6 87 0.9 SSW 22 28 12 15 1027.6 1027.5 0.0
22/07:30am 8.5 3.9 6.3 86 1.0 SSW 20 26 11 14 1027.5 1027.4 0.0
22/07:00am 8.9 4.3 6.3 84 1.2 SSW 20 26 11 14 1027.1 1027.0 0.0
22/06:30am 9.1 4.7 6.4 83 1.3 SSW 19 24 10 13 1026.5 1026.4 0.0
22/06:00am 9.2 4.7 6.3 82 1.4 SSW 19 24 10 13 1026.3 1026.2 0.0
22/05:30am 9.2 4.6 6.3 82 1.4 SSW 20 28 11 15 1026.3 1026.2 0.0
22/05:00am 9.3 3.9 6.2 81 1.4 SSW 24 30 13 16 1026.2 1026.1 0.0
22/04:30am 9.3 3.9 6.2 81 1.5 SSW 24 28 13 15 1026.3 1026.2 0.0
22/04:00am 9.3 4.2 5.9 79 1.6 SSW 22 28 12 15 1026.4 1026.3 0.0
22/03:30am 9.3 4.7 5.5 77 1.7 SSW 19 24 10 13 1026.4 1026.3 0.0
22/03:00am 9.3 4.4 5.1 75 1.9 SW 20 28 11 15 1026.5 1026.4 0.0
22/02:30am 9.3 4.3 4.7 73 2.1 SW 20 26 11 14 1026.4 1026.3 0.0
22/02:00am 9.4 4.6 4.6 72 2.2 SSW 19 26 10 14 1026.4 1026.3 0.0
22/01:30am 9.4 4.4 4.4 71 2.3 SSW 20 28 11 15 1026.5 1026.4 0.0
22/01:00am 9.5 4.4 4.3 70 2.3 SSW 20 28 11 15 1026.6 1026.5 0.0
22/12:30am 9.6 4.5 4.2 69 2.4 SSW 20 26 11 14 1026.8 1026.6 0.0
22/12:00am 9.6 4.1 4.0 68 2.5 SSW 22 28 12 15 1026.6 1026.5 0.0
 
Date/Time
EST
Temp
°C
App
Temp
°C
Dew
Point
Rel
Hum
%
Delta-T
°C
Wind Press
QNH
hPa
Press
MSL
hPa
Rain
since 9 am
mm
Dir
 
Spd
km/h
Gust
km/h
Spd
kts
Gust
kts
21/11:30pm 9.5 4.6 4.3 70 2.3 SSW 19 24 10 13 1026.9 1026.7 0.0
21/11:00pm 9.1 4.2 4.3 72 2.1 SSW 19 22 10 12 1026.9 1026.7 0.0
21/10:30pm 9.2 4.4 4.4 72 2.2 SSW 19 24 10 13 1027.0 1026.8 0.0
21/10:00pm 8.8 4.0 4.4 74 2.0 SSW 19 24 10 13 1026.9 1026.7 0.0
21/09:30pm 8.3 4.3 4.7 78 1.6 SSW 15 20 8 11 1026.8 1026.6 0.0
21/09:00pm 6.8 3.4 3.9 82 1.3 SW 11 13 6 7 1026.6 1026.5 0.0
21/08:30pm 7.9 3.8 4.1 77 1.7 SSW 15 19 8 10 1026.5 1026.4 0.0
21/08:00pm 8.5 4.0 4.3 75 1.9 SW 17 20 9 11 1026.1 1026.0 0.0
21/07:30pm 9.6 4.6 4.4 70 2.3 SSW 20 28 11 15 1025.9 1025.8 0.0
21/07:00pm 10.0 4.7 4.8 70 2.4 SSW 22 28 12 15 1025.6 1025.5 0.0
21/06:30pm 10.2 3.3 4.6 68 2.5 SSW 30 39 16 21 1025.3 1025.2 0.0
21/06:00pm 10.5 4.3 4.4 66 2.8 SSW 26 33 14 18 1024.8 1024.7 0.0
21/05:30pm 10.7 3.8 4.4 65 2.9 SSW 30 37 16 20 1024.6 1024.5 0.0
21/05:00pm 10.9 4.4 4.6 65 2.9 SSW 28 37 15 20 1024.6 1024.5 0.0
21/04:30pm 11.0 3.8 5.1 67 2.7 SSW 32 41 17 22 1024.2 1024.1 0.0
21/04:00pm 11.5 4.3 5.2 65 2.9 SSW 32 43 17 23 1023.9 1023.7 0.0
21/03:30pm 11.2 3.9 5.3 67 2.7 SSW 33 41 18 22 1024.0 1023.9 0.0
21/03:00pm 11.2 4.2 5.9 70 2.5 SSW 32 41 17 22 1023.8 1023.6 0.0
21/02:30pm 11.1 4.6 6.5 73 2.2 SSW 30 41 16 22 1023.8 1023.6 0.0
21/02:00pm 11.7 5.1 6.0 68 2.7 SW 30 39 16 21 1024.0 1023.9 0.0
21/01:30pm 11.6 5.0 6.1 69 2.6 SSW 30 37 16 20 1023.9 1023.7 0.0
21/01:00pm 11.4 5.7 6.5 72 2.3 SSW 26 33 14 18 1024.1 1024.0 0.0
21/12:30pm 11.5 5.4 6.8 73 2.3 SSW 28 37 15 20 1024.2 1024.1 0.0
21/12:00pm 10.3 5.2 7.5 83 1.4 SSW 24 33 13 18 1024.4 1024.3 0.0
21/11:30am 9.7 3.5 7.8 88 0.9 SSW 30 39 16 21 1024.7 1024.6 0.0
21/11:21am 10.1 3.4 7.5 84 1.3 SSW 32 37 17 20 1024.7 1024.6 0.0
21/11:00am 9.7 4.0 8.5 92 0.6 SSW 28 35 15 19 1024.8 1024.7 0.0
21/10:30am 9.6 5.0 8.2 91 0.7 SSW 22 30 12 16 1024.7 1024.6 0.0
21/10:00am 9.5 4.8 7.6 88 0.9 SSW 22 28 12 15 1024.4 1024.3 0.0
21/09:30am 9.6 4.9 7.9 89 0.8 SSW 22 28 12 15 1024.0 1023.9 0.2
21/09:00am 9.2 4.2 8.1 93 0.5 SSW 24 32 13 17 1023.8 1023.6 0.2
21/08:30am 8.7 4.4 7.8 94 0.4 SSW 20 26 11 14 1023.5 1023.3 0.2
21/08:12am 8.4 4.6 7.6 95 0.4 SSW 17 24 9 13 1023.4 1023.2 0.2
21/08:00am 8.3 3.9 7.5 95 0.4 SSW 20 24 11 13 1023.2 1023.0 0.2
21/07:30am 7.9 3.4 7.1 95 0.4 SSW 20 24 11 13 1023.0 1022.8 0.2
21/07:00am 7.8 2.2 7.1 95 0.3 SSW 26 33 14 18 1022.6 1022.5 0.2
21/06:30am 7.9 3.0 7.0 94 0.4 SSW 22 28 12 15 1022.4 1022.3 0.2
21/06:20am 8.0 2.7 6.9 93 0.5 SSW 24 28 13 15 1022.4 1022.3 0.2
21/06:00am 8.3 3.0 6.9 91 0.7 SSW 24 30 13 16 1022.2 1022.1 0.2
21/05:35am 8.7 3.8 6.8 88 0.9 SSW 22 30 12 16 1021.7 1021.6 0.2
21/05:30am 8.7 3.8 6.8 88 0.9 SSW 22 30 12 16 1021.6 1021.5 0.2
21/05:00am 8.8 4.3 6.8 87 0.9 SSW 20 24 11 13 1021.6 1021.5 0.2
21/04:30am 9.0 5.4 6.8 86 1.0 SSW 15 17 8 9 1021.5 1021.4 0.2
21/04:00am 9.1 5.9 6.7 85 1.1 SSW 13 19 7 10 1021.5 1021.4 0.2
21/03:30am 9.2 5.2 6.8 85 1.1 SSW 17 20 9 11 1021.5 1021.4 0.2
21/03:00am 9.4 5.9 7.3 87 1.0 SSW 15 19 8 10 1021.5 1021.4 0.2
21/02:30am 9.7 6.3 7.6 87 1.0 SSW 15 20 8 11 1021.5 1021.4 0.2
21/02:00am 10.1 6.3 7.5 84 1.3 SSW 17 20 9 11 1021.5 1021.4 0.0
21/01:30am 10.1 6.3 7.5 84 1.3 S 17 22 9 12 1021.4 1021.3 0.0
21/01:00am 10.5 7.5 7.9 84 1.3 SSW 13 17 7 9 1021.6 1021.5 0.0
21/12:30am 10.9 7.5 7.8 81 1.5 SSW 15 22 8 12 1021.4 1021.3 0.0
21/12:00am 11.2 7.5 7.9 80 1.6 SSW 17 20 9 11 1021.4 1021.3 0.0
 
Date/Time
EST
Temp
°C
App
Temp
°C
Dew
Point
Rel
Hum
%
Delta-T
°C
Wind Press
QNH
hPa
Press
MSL
hPa
Rain
since 9 am
mm
Dir
 
Spd
km/h
Gust
km/h
Spd
kts
Gust
kts
20/11:30pm 11.4 8.1 8.1 80 1.6 SSW 15 20 8 11 1021.3 1021.2 0.0
20/11:00pm 11.3 8.4 8.2 81 1.5 SSW 13 15 7 8 1021.1 1021.0 0.0
20/10:30pm 11.3 9.6 8.5 83 1.4 S 7 7 4 4 1021.1 1021.0 0.0
20/10:00pm 11.5 9.5 8.5 82 1.5 SW 9 9 5 5 1021.1 1021.0 0.0
20/09:30pm 11.6 9.6 8.8 83 1.4 SW 9 11 5 6 1020.9 1020.7 0.0
20/09:00pm 11.5 11.0 9.2 86 1.2 WSW 2 6 1 3 1020.8 1020.6 0.0
20/08:30pm 11.6 11.4 9.2 85 1.2 CALM 0 0 0 0 1020.6 1020.4 0.0
20/08:00pm 11.7 11.5 8.9 83 1.4 CALM 0 0 0 0 1020.4 1020.2 0.0
20/07:30pm 11.7 10.1 8.6 81 1.6 WSW 7 7 4 4 1020.2 1020.0 0.0
20/07:00pm 12.1 10.2 8.9 81 1.6 SSW 9 13 5 7 1020.0 1019.8 0.0
20/06:30pm 12.9 8.8 8.8 76 2.1 SW 20 30 11 16 1019.8 1019.6 0.0
20/06:00pm 14.3 10.7 8.3 67 3.0 SW 17 22 9 12 1019.3 1019.1 0.0
20/05:30pm 15.2 11.9 8.0 62 3.7 SSW 15 20 8 11 1018.6 1018.5 0.0
20/05:00pm 15.6 12.3 8.1 61 3.8 SW 15 20 8 11 1018.3 1018.2 0.0
20/04:30pm 16.1 13.1 7.6 57 4.3 W 13 17 7 9 1018.1 1018.0 0.0
20/04:00pm 16.6 14.6 8.6 59 4.1 SW 9 17 5 9 1018.0 1017.9 0.0
20/03:30pm 15.7 12.9 8.4 62 3.7 SW 13 20 7 11 1018.0 1017.9 0.0
20/03:00pm 16.0 13.2 8.5 61 3.9 SW 13 19 7 10 1017.9 1017.8 0.0
20/02:30pm 15.9 13.1 8.6 62 3.8 WSW 13 19 7 10 1017.8 1017.6 0.0
20/02:00pm 15.8 12.6 8.5 62 3.8 SW 15 24 8 13 1018.0 1017.9 0.0
20/01:30pm 15.7 12.5 8.4 62 3.8 WSW 15 19 8 10 1018.2 1018.1 0.0
20/01:00pm 15.9 12.8 8.9 63 3.6 WSW 15 19 8 10 1018.6 1018.5 0.0
20/12:30pm 15.6 11.9 9.3 66 3.3 SW 19 24 10 13 1018.7 1018.6 0.0
20/12:00pm 15.4 12.0 9.3 67 3.2 WSW 17 26 9 14 1019.0 1018.9 0.0
20/11:30am 15.4 11.8 10.0 70 2.9 WSW 19 26 10 14 1019.3 1019.1 0.0
20/11:00am 15.0 11.5 10.2 73 2.5 WSW 19 24 10 13 1019.3 1019.1 0.0
20/10:30am 14.5 11.4 10.3 76 2.2 WSW 17 22 9 12 1019.3 1019.1 0.0
20/10:00am 13.6 11.3 10.6 82 1.6 W 13 17 7 9 1018.9 1018.8 0.0
20/09:30am 12.8 10.6 10.7 87 1.1 W 13 17 7 9 1018.4 1018.3 7.0
20/09:00am 12.1 10.1 10.2 88 1.0 WNW 11 15 6 8 1018.2 1018.1 7.0
20/08:30am 11.7 8.8 9.8 88 1.0 WNW 15 20 8 11 1018.1 1018.0 7.0
20/08:00am 10.9 8.3 9.3 90 0.8 WNW 13 15 7 8 1017.6 1017.4 7.0
20/07:30am 10.6 8.3 9.0 90 0.8 WNW 11 13 6 7 1017.2 1017.0 7.0
20/07:00am 10.2 7.8 8.6 90 0.8 WNW 11 15 6 8 1016.8 1016.6 7.0
20/06:30am 10.7 8.3 8.8 88 1.0 WNW 11 15 6 8 1016.3 1016.1 7.0
20/06:00am 11.0 8.3 8.9 87 1.1 NW 13 17 7 9 1016.2 1016.0 7.0
20/05:30am 11.0 8.3 8.9 87 1.1 WNW 13 13 7 7 1015.7 1015.5 7.0
20/05:00am 10.8 8.4 8.6 86 1.1 WNW 11 13 6 7 1015.7 1015.5 7.0
20/04:30am 11.1 8.3 8.7 85 1.2 WNW 13 15 7 8 1015.3 1015.2 7.0
20/04:00am 11.3 9.3 8.5 83 1.4 W 9 11 5 6 1015.0 1014.9 7.0
20/03:30am 11.9 9.5 8.7 81 1.6 WNW 11 15 6 8 1015.3 1015.2 7.0
20/03:00am 11.8 8.6 8.5 80 1.7 WNW 15 17 8 9 1015.1 1015.0 7.0
20/02:30am 11.5 8.9 7.6 77 1.9 WNW 11 13 6 7 1014.9 1014.8 7.0
20/02:00am 11.9 9.2 7.2 73 2.3 W 11 15 6 8 1014.7 1014.5 7.0
20/01:30am 12.4 10.4 7.1 70 2.6 SW 7 9 4 5 1014.6 1014.4 7.0
20/01:00am 13.5 9.6 7.3 66 3.1 NW 17 20 9 11 1014.6 1014.4 7.0
20/12:30am 13.6 10.7 6.7 63 3.4 WNW 11 15 6 8 1014.6 1014.4 7.0
20/12:00am 13.3 12.2 6.9 65 3.1 NW 2 9 1 5 1014.7 1014.5 7.0
 
Date/Time
EST
Temp
°C
App
Temp
°C
Dew
Point
Rel
Hum
%
Delta-T
°C
Wind Press
QNH
hPa
Press
MSL
hPa
Rain
since 9 am
mm
Dir
 
Spd
km/h
Gust
km/h
Spd
kts
Gust
kts
19/11:30pm 12.7 10.9 7.2 69 2.7 NW 6 7 3 4 1014.7 1014.5 7.0
19/11:00pm 13.6 10.0 6.7 63 3.4 WNW 15 17 8 9 1014.5 1014.3 7.0
19/10:30pm 13.8 10.7 7.1 64 3.3 W 13 17 7 9 1014.6 1014.4 7.0
19/10:00pm 16.5 12.7 5.8 49 5.2 NW 15 20 8 11 1014.1 1013.9 7.0
19/09:30pm 16.1 13.3 7.1 55 4.5 NNW 11 15 6 8 1013.9 1013.7 7.0
19/09:00pm 16.6 13.9 7.3 54 4.7 NW 11 15 6 8 1013.8 1013.6 7.0
19/08:30pm 16.7 13.3 7.6 55 4.6 NW 15 19 8 10 1013.6 1013.4 7.0

Other Formats:

Comma delimited format used in spreadsheet applications
http://www.bom.gov.au/fwo/IDN60801/IDN60801.94691.axf

JavaScript Object Notation format (JSON) in row-major order
http://www.bom.gov.au/fwo/IDN60801/IDN60801.94691.json